sensor_id;sensor_type;location;lat;lon;timestamp;P1;durP1;ratioP1;P2;durP2;ratioP2
43114;SDS011;28727;50.068;14.452;2023-11-19T00:00:50;14.15;;;8.07;;
43114;SDS011;28727;50.068;14.452;2023-11-19T00:05:56;13.23;;;7.50;;
43114;SDS011;28727;50.068;14.452;2023-11-19T00:08:28;12.88;;;7.82;;
43114;SDS011;28727;50.068;14.452;2023-11-19T00:11:03;13.38;;;8.48;;
43114;SDS011;28727;50.068;14.452;2023-11-19T00:13:35;13.95;;;8.18;;
43114;SDS011;28727;50.068;14.452;2023-11-19T00:16:07;12.85;;;8.15;;
43114;SDS011;28727;50.068;14.452;2023-11-19T00:18:41;13.60;;;8.13;;
43114;SDS011;28727;50.068;14.452;2023-11-19T00:21:12;13.57;;;8.57;;
43114;SDS011;28727;50.068;14.452;2023-11-19T00:23:44;12.48;;;8.25;;
43114;SDS011;28727;50.068;14.452;2023-11-19T00:26:16;13.68;;;9.07;;
43114;SDS011;28727;50.068;14.452;2023-11-19T00:28:54;14.93;;;8.10;;
43114;SDS011;28727;50.068;14.452;2023-11-19T00:31:27;16.20;;;8.45;;
43114;SDS011;28727;50.068;14.452;2023-11-19T00:33:59;14.50;;;8.90;;
43114;SDS011;28727;50.068;14.452;2023-11-19T00:36:31;14.98;;;9.15;;
43114;SDS011;28727;50.068;14.452;2023-11-19T00:39:03;15.48;;;9.82;;
43114;SDS011;28727;50.068;14.452;2023-11-19T00:41:35;14.15;;;9.35;;
43114;SDS011;28727;50.068;14.452;2023-11-19T00:44:07;16.45;;;10.30;;
43114;SDS011;28727;50.068;14.452;2023-11-19T00:46:38;14.05;;;9.23;;
43114;SDS011;28727;50.068;14.452;2023-11-19T00:49:10;15.05;;;8.75;;
43114;SDS011;28727;50.068;14.452;2023-11-19T00:51:43;11.82;;;7.38;;
43114;SDS011;28727;50.068;14.452;2023-11-19T00:54:17;12.43;;;8.18;;
43114;SDS011;28727;50.068;14.452;2023-11-19T00:56:48;13.27;;;7.88;;
43114;SDS011;28727;50.068;14.452;2023-11-19T01:01:55;13.80;;;8.40;;
43114;SDS011;28727;50.068;14.452;2023-11-19T01:04:27;12.25;;;7.90;;
43114;SDS011;28727;50.068;14.452;2023-11-19T01:07:01;13.45;;;8.80;;
43114;SDS011;28727;50.068;14.452;2023-11-19T01:09:35;11.63;;;7.53;;
43114;SDS011;28727;50.068;14.452;2023-11-19T01:12:08;12.05;;;8.07;;
43114;SDS011;28727;50.068;14.452;2023-11-19T01:14:40;12.13;;;7.20;;
43114;SDS011;28727;50.068;14.452;2023-11-19T01:17:15;14.05;;;8.57;;
43114;SDS011;28727;50.068;14.452;2023-11-19T01:19:48;12.35;;;8.35;;
43114;SDS011;28727;50.068;14.452;2023-11-19T01:22:21;14.15;;;8.65;;
43114;SDS011;28727;50.068;14.452;2023-11-19T01:24:53;12.13;;;7.97;;
43114;SDS011;28727;50.068;14.452;2023-11-19T01:27:27;10.38;;;7.38;;
43114;SDS011;28727;50.068;14.452;2023-11-19T01:29:59;11.63;;;6.97;;
43114;SDS011;28727;50.068;14.452;2023-11-19T01:32:31;10.88;;;7.90;;
43114;SDS011;28727;50.068;14.452;2023-11-19T01:35:03;14.80;;;7.22;;
43114;SDS011;28727;50.068;14.452;2023-11-19T01:37:36;10.88;;;7.20;;
43114;SDS011;28727;50.068;14.452;2023-11-19T01:40:08;11.43;;;7.10;;
43114;SDS011;28727;50.068;14.452;2023-11-19T01:42:43;10.70;;;7.65;;
43114;SDS011;28727;50.068;14.452;2023-11-19T01:45:21;10.75;;;7.32;;
43114;SDS011;28727;50.068;14.452;2023-11-19T01:48:02;11.90;;;7.00;;
43114;SDS011;28727;50.068;14.452;2023-11-19T01:50:37;10.93;;;7.13;;
43114;SDS011;28727;50.068;14.452;2023-11-19T01:53:09;11.15;;;7.60;;
43114;SDS011;28727;50.068;14.452;2023-11-19T01:55:49;10.40;;;6.95;;
43114;SDS011;28727;50.068;14.452;2023-11-19T01:58:21;10.48;;;6.90;;
43114;SDS011;28727;50.068;14.452;2023-11-19T02:00:54;12.02;;;7.18;;
43114;SDS011;28727;50.068;14.452;2023-11-19T02:03:34;10.95;;;7.15;;
43114;SDS011;28727;50.068;14.452;2023-11-19T02:06:06;10.20;;;6.53;;
43114;SDS011;28727;50.068;14.452;2023-11-19T02:08:41;9.40;;;6.60;;
43114;SDS011;28727;50.068;14.452;2023-11-19T02:11:16;11.02;;;6.80;;
43114;SDS011;28727;50.068;14.452;2023-11-19T02:13:49;11.63;;;7.47;;
43114;SDS011;28727;50.068;14.452;2023-11-19T02:16:21;11.98;;;7.72;;
43114;SDS011;28727;50.068;14.452;2023-11-19T02:18:55;12.68;;;6.88;;
43114;SDS011;28727;50.068;14.452;2023-11-19T02:21:32;9.60;;;7.00;;
43114;SDS011;28727;50.068;14.452;2023-11-19T02:24:10;12.75;;;8.00;;
43114;SDS011;28727;50.068;14.452;2023-11-19T02:29:17;10.63;;;7.63;;
43114;SDS011;28727;50.068;14.452;2023-11-19T02:31:49;11.75;;;7.40;;
43114;SDS011;28727;50.068;14.452;2023-11-19T02:34:21;11.63;;;7.95;;
43114;SDS011;28727;50.068;14.452;2023-11-19T02:36:53;13.05;;;7.93;;
43114;SDS011;28727;50.068;14.452;2023-11-19T02:39:27;12.98;;;8.50;;
43114;SDS011;28727;50.068;14.452;2023-11-19T02:44:43;12.85;;;7.97;;
43114;SDS011;28727;50.068;14.452;2023-11-19T02:47:16;12.20;;;7.93;;
43114;SDS011;28727;50.068;14.452;2023-11-19T02:49:48;15.55;;;8.82;;
43114;SDS011;28727;50.068;14.452;2023-11-19T02:52:21;12.85;;;8.32;;
43114;SDS011;28727;50.068;14.452;2023-11-19T02:54:53;14.23;;;7.68;;
43114;SDS011;28727;50.068;14.452;2023-11-19T02:57:24;12.07;;;8.07;;
43114;SDS011;28727;50.068;14.452;2023-11-19T02:59:57;12.90;;;7.97;;
43114;SDS011;28727;50.068;14.452;2023-11-19T03:02:40;12.32;;;8.00;;
43114;SDS011;28727;50.068;14.452;2023-11-19T03:05:17;10.80;;;7.70;;
43114;SDS011;28727;50.068;14.452;2023-11-19T03:07:51;12.77;;;8.15;;
43114;SDS011;28727;50.068;14.452;2023-11-19T03:10:27;12.45;;;7.75;;
43114;SDS011;28727;50.068;14.452;2023-11-19T03:13:03;13.10;;;8.57;;
43114;SDS011;28727;50.068;14.452;2023-11-19T03:15:35;13.88;;;8.00;;
43114;SDS011;28727;50.068;14.452;2023-11-19T03:18:07;12.68;;;7.72;;
43114;SDS011;28727;50.068;14.452;2023-11-19T03:20:41;12.95;;;8.25;;
43114;SDS011;28727;50.068;14.452;2023-11-19T03:23:18;12.25;;;8.15;;
43114;SDS011;28727;50.068;14.452;2023-11-19T03:25:52;12.32;;;7.50;;
43114;SDS011;28727;50.068;14.452;2023-11-19T03:28:29;10.60;;;7.38;;
43114;SDS011;28727;50.068;14.452;2023-11-19T03:31:08;12.20;;;7.78;;
43114;SDS011;28727;50.068;14.452;2023-11-19T03:33:45;10.45;;;7.20;;
43114;SDS011;28727;50.068;14.452;2023-11-19T03:36:18;10.45;;;7.43;;
43114;SDS011;28727;50.068;14.452;2023-11-19T03:38:50;10.73;;;7.13;;
43114;SDS011;28727;50.068;14.452;2023-11-19T03:41:22;10.68;;;7.15;;
43114;SDS011;28727;50.068;14.452;2023-11-19T03:43:54;10.20;;;6.78;;
43114;SDS011;28727;50.068;14.452;2023-11-19T03:46:27;12.18;;;7.05;;
43114;SDS011;28727;50.068;14.452;2023-11-19T03:49:11;10.57;;;7.10;;
43114;SDS011;28727;50.068;14.452;2023-11-19T03:51:49;11.25;;;6.68;;
43114;SDS011;28727;50.068;14.452;2023-11-19T03:54:21;11.63;;;6.90;;
43114;SDS011;28727;50.068;14.452;2023-11-19T03:56:57;9.93;;;6.50;;
43114;SDS011;28727;50.068;14.452;2023-11-19T03:59:31;10.52;;;6.32;;
43114;SDS011;28727;50.068;14.452;2023-11-19T04:02:08;9.00;;;6.50;;
43114;SDS011;28727;50.068;14.452;2023-11-19T04:04:45;9.68;;;6.60;;
43114;SDS011;28727;50.068;14.452;2023-11-19T04:07:17;8.93;;;6.28;;
43114;SDS011;28727;50.068;14.452;2023-11-19T04:09:50;10.25;;;6.55;;
43114;SDS011;28727;50.068;14.452;2023-11-19T04:12:22;18.63;;;8.55;;
43114;SDS011;28727;50.068;14.452;2023-11-19T04:14:54;9.93;;;6.72;;
43114;SDS011;28727;50.068;14.452;2023-11-19T04:17:30;10.13;;;6.88;;
43114;SDS011;28727;50.068;14.452;2023-11-19T04:20:02;9.18;;;6.13;;
43114;SDS011;28727;50.068;14.452;2023-11-19T04:22:35;10.80;;;6.43;;
43114;SDS011;28727;50.068;14.452;2023-11-19T04:25:07;9.55;;;6.38;;
43114;SDS011;28727;50.068;14.452;2023-11-19T04:27:40;10.18;;;7.43;;
43114;SDS011;28727;50.068;14.452;2023-11-19T04:30:16;8.88;;;6.78;;
43114;SDS011;28727;50.068;14.452;2023-11-19T04:32:48;8.70;;;6.30;;
43114;SDS011;28727;50.068;14.452;2023-11-19T04:35:20;8.50;;;6.10;;
43114;SDS011;28727;50.068;14.452;2023-11-19T04:37:52;10.90;;;6.65;;
43114;SDS011;28727;50.068;14.452;2023-11-19T04:40:25;9.00;;;6.20;;
43114;SDS011;28727;50.068;14.452;2023-11-19T04:42:57;9.38;;;6.45;;
43114;SDS011;28727;50.068;14.452;2023-11-19T04:45:29;10.43;;;6.18;;
43114;SDS011;28727;50.068;14.452;2023-11-19T04:48:01;8.93;;;6.38;;
43114;SDS011;28727;50.068;14.452;2023-11-19T04:50:33;9.93;;;6.60;;
43114;SDS011;28727;50.068;14.452;2023-11-19T04:53:04;9.23;;;6.25;;
43114;SDS011;28727;50.068;14.452;2023-11-19T04:55:36;9.63;;;6.22;;
43114;SDS011;28727;50.068;14.452;2023-11-19T04:58:08;9.13;;;6.03;;
43114;SDS011;28727;50.068;14.452;2023-11-19T05:00:40;8.80;;;6.15;;
43114;SDS011;28727;50.068;14.452;2023-11-19T05:03:15;8.20;;;6.30;;
43114;SDS011;28727;50.068;14.452;2023-11-19T05:05:47;8.23;;;6.07;;
43114;SDS011;28727;50.068;14.452;2023-11-19T05:08:19;7.65;;;5.50;;
43114;SDS011;28727;50.068;14.452;2023-11-19T05:10:51;8.63;;;6.03;;
43114;SDS011;28727;50.068;14.452;2023-11-19T05:13:23;8.20;;;5.60;;
43114;SDS011;28727;50.068;14.452;2023-11-19T05:15:55;8.63;;;5.45;;
43114;SDS011;28727;50.068;14.452;2023-11-19T05:18:26;7.68;;;5.60;;
43114;SDS011;28727;50.068;14.452;2023-11-19T05:20:58;7.93;;;5.60;;
43114;SDS011;28727;50.068;14.452;2023-11-19T05:23:30;8.40;;;5.30;;
43114;SDS011;28727;50.068;14.452;2023-11-19T05:26:02;7.97;;;5.95;;
43114;SDS011;28727;50.068;14.452;2023-11-19T05:28:38;8.57;;;5.60;;
43114;SDS011;28727;50.068;14.452;2023-11-19T05:31:14;9.35;;;6.13;;
43114;SDS011;28727;50.068;14.452;2023-11-19T05:33:47;10.23;;;5.75;;
43114;SDS011;28727;50.068;14.452;2023-11-19T05:36:19;8.82;;;5.97;;
43114;SDS011;28727;50.068;14.452;2023-11-19T05:38:50;10.07;;;7.10;;
43114;SDS011;28727;50.068;14.452;2023-11-19T05:41:22;8.68;;;5.97;;
43114;SDS011;28727;50.068;14.452;2023-11-19T05:43:54;9.75;;;5.95;;
43114;SDS011;28727;50.068;14.452;2023-11-19T05:46:26;10.50;;;6.78;;
43114;SDS011;28727;50.068;14.452;2023-11-19T05:48:58;9.68;;;5.88;;
43114;SDS011;28727;50.068;14.452;2023-11-19T05:51:30;8.68;;;6.30;;
43114;SDS011;28727;50.068;14.452;2023-11-19T05:54:02;8.75;;;6.20;;
43114;SDS011;28727;50.068;14.452;2023-11-19T05:56:34;8.43;;;6.15;;
43114;SDS011;28727;50.068;14.452;2023-11-19T05:59:06;8.23;;;6.10;;
43114;SDS011;28727;50.068;14.452;2023-11-19T06:01:47;10.13;;;6.32;;
43114;SDS011;28727;50.068;14.452;2023-11-19T06:04:18;9.55;;;6.32;;
43114;SDS011;28727;50.068;14.452;2023-11-19T06:06:50;8.68;;;6.55;;
43114;SDS011;28727;50.068;14.452;2023-11-19T06:09:22;9.52;;;7.07;;
43114;SDS011;28727;50.068;14.452;2023-11-19T06:11:57;11.38;;;6.32;;
43114;SDS011;28727;50.068;14.452;2023-11-19T06:14:28;9.73;;;6.63;;
43114;SDS011;28727;50.068;14.452;2023-11-19T06:17:02;10.95;;;7.43;;
43114;SDS011;28727;50.068;14.452;2023-11-19T06:19:37;11.80;;;6.72;;
43114;SDS011;28727;50.068;14.452;2023-11-19T06:22:14;10.52;;;6.43;;
43114;SDS011;28727;50.068;14.452;2023-11-19T06:24:46;7.53;;;5.50;;
43114;SDS011;28727;50.068;14.452;2023-11-19T06:27:19;7.55;;;5.57;;
43114;SDS011;28727;50.068;14.452;2023-11-19T06:29:51;8.60;;;5.78;;
43114;SDS011;28727;50.068;14.452;2023-11-19T06:32:22;9.93;;;6.38;;
43114;SDS011;28727;50.068;14.452;2023-11-19T06:34:54;12.40;;;7.53;;
43114;SDS011;28727;50.068;14.452;2023-11-19T06:37:30;11.63;;;7.05;;
43114;SDS011;28727;50.068;14.452;2023-11-19T06:40:03;10.68;;;6.43;;
43114;SDS011;28727;50.068;14.452;2023-11-19T06:42:38;9.05;;;6.05;;
43114;SDS011;28727;50.068;14.452;2023-11-19T06:45:18;10.18;;;6.35;;
43114;SDS011;28727;50.068;14.452;2023-11-19T06:48:12;10.13;;;7.32;;
43114;SDS011;28727;50.068;14.452;2023-11-19T06:50:43;8.00;;;5.72;;
43114;SDS011;28727;50.068;14.452;2023-11-19T06:53:15;7.97;;;5.18;;
43114;SDS011;28727;50.068;14.452;2023-11-19T06:55:47;7.75;;;5.38;;
43114;SDS011;28727;50.068;14.452;2023-11-19T06:58:18;6.85;;;4.95;;
43114;SDS011;28727;50.068;14.452;2023-11-19T07:00:50;8.77;;;5.47;;
43114;SDS011;28727;50.068;14.452;2023-11-19T07:03:23;9.35;;;5.72;;
43114;SDS011;28727;50.068;14.452;2023-11-19T07:05:56;8.15;;;5.65;;
43114;SDS011;28727;50.068;14.452;2023-11-19T07:08:28;6.63;;;5.00;;
43114;SDS011;28727;50.068;14.452;2023-11-19T07:11:11;10.30;;;6.05;;
43114;SDS011;28727;50.068;14.452;2023-11-19T07:13:46;6.32;;;4.57;;
43114;SDS011;28727;50.068;14.452;2023-11-19T07:16:18;8.02;;;5.38;;
43114;SDS011;28727;50.068;14.452;2023-11-19T07:18:51;7.82;;;5.20;;
43114;SDS011;28727;50.068;14.452;2023-11-19T07:21:29;7.47;;;4.22;;
43114;SDS011;28727;50.068;14.452;2023-11-19T07:24:01;7.40;;;4.85;;
43114;SDS011;28727;50.068;14.452;2023-11-19T07:26:55;7.80;;;4.95;;
43114;SDS011;28727;50.068;14.452;2023-11-19T07:29:27;6.38;;;4.55;;
43114;SDS011;28727;50.068;14.452;2023-11-19T07:32:00;6.53;;;4.50;;
43114;SDS011;28727;50.068;14.452;2023-11-19T07:34:33;6.05;;;4.50;;
43114;SDS011;28727;50.068;14.452;2023-11-19T07:37:05;6.68;;;4.95;;
43114;SDS011;28727;50.068;14.452;2023-11-19T07:39:41;6.45;;;4.95;;
43114;SDS011;28727;50.068;14.452;2023-11-19T07:42:13;6.60;;;4.70;;
43114;SDS011;28727;50.068;14.452;2023-11-19T07:44:45;7.07;;;5.07;;
43114;SDS011;28727;50.068;14.452;2023-11-19T07:47:17;7.20;;;4.60;;
43114;SDS011;28727;50.068;14.452;2023-11-19T07:49:51;7.30;;;4.70;;
43114;SDS011;28727;50.068;14.452;2023-11-19T07:52:30;6.72;;;4.63;;
43114;SDS011;28727;50.068;14.452;2023-11-19T07:55:04;6.70;;;4.65;;
43114;SDS011;28727;50.068;14.452;2023-11-19T07:57:40;6.65;;;5.03;;
43114;SDS011;28727;50.068;14.452;2023-11-19T08:00:12;7.25;;;4.97;;
43114;SDS011;28727;50.068;14.452;2023-11-19T08:02:44;6.57;;;4.65;;
43114;SDS011;28727;50.068;14.452;2023-11-19T08:05:16;8.63;;;5.07;;
43114;SDS011;28727;50.068;14.452;2023-11-19T08:07:52;7.85;;;5.20;;
43114;SDS011;28727;50.068;14.452;2023-11-19T08:10:24;6.30;;;4.40;;
43114;SDS011;28727;50.068;14.452;2023-11-19T08:13:07;7.22;;;5.28;;
43114;SDS011;28727;50.068;14.452;2023-11-19T08:15:39;8.10;;;5.45;;
43114;SDS011;28727;50.068;14.452;2023-11-19T08:18:12;7.43;;;4.95;;
43114;SDS011;28727;50.068;14.452;2023-11-19T08:20:45;11.73;;;5.70;;
43114;SDS011;28727;50.068;14.452;2023-11-19T08:23:28;7.15;;;5.15;;
43114;SDS011;28727;50.068;14.452;2023-11-19T08:26:00;8.25;;;6.30;;
43114;SDS011;28727;50.068;14.452;2023-11-19T08:28:32;8.60;;;5.75;;
43114;SDS011;28727;50.068;14.452;2023-11-19T08:33:38;7.50;;;5.68;;
43114;SDS011;28727;50.068;14.452;2023-11-19T08:36:15;9.02;;;5.47;;
43114;SDS011;28727;50.068;14.452;2023-11-19T08:38:48;6.57;;;5.25;;
43114;SDS011;28727;50.068;14.452;2023-11-19T08:41:27;8.20;;;5.68;;
43114;SDS011;28727;50.068;14.452;2023-11-19T08:43:59;7.78;;;5.72;;
43114;SDS011;28727;50.068;14.452;2023-11-19T08:46:33;6.43;;;5.03;;
43114;SDS011;28727;50.068;14.452;2023-11-19T08:49:11;7.63;;;5.57;;
43114;SDS011;28727;50.068;14.452;2023-11-19T08:51:43;6.85;;;5.22;;
43114;SDS011;28727;50.068;14.452;2023-11-19T08:54:16;6.72;;;4.75;;
43114;SDS011;28727;50.068;14.452;2023-11-19T08:56:48;7.18;;;5.00;;
43114;SDS011;28727;50.068;14.452;2023-11-19T08:59:20;8.35;;;5.00;;
43114;SDS011;28727;50.068;14.452;2023-11-19T09:01:52;7.07;;;5.45;;
43114;SDS011;28727;50.068;14.452;2023-11-19T09:04:24;7.72;;;5.43;;
43114;SDS011;28727;50.068;14.452;2023-11-19T09:06:57;8.02;;;5.45;;
43114;SDS011;28727;50.068;14.452;2023-11-19T09:09:29;8.27;;;5.45;;
43114;SDS011;28727;50.068;14.452;2023-11-19T09:12:01;8.48;;;5.85;;
43114;SDS011;28727;50.068;14.452;2023-11-19T09:14:35;6.88;;;5.32;;
43114;SDS011;28727;50.068;14.452;2023-11-19T09:17:08;7.45;;;5.38;;
43114;SDS011;28727;50.068;14.452;2023-11-19T09:19:41;6.65;;;4.68;;
43114;SDS011;28727;50.068;14.452;2023-11-19T09:22:13;6.38;;;5.25;;
43114;SDS011;28727;50.068;14.452;2023-11-19T09:24:45;7.50;;;5.05;;
43114;SDS011;28727;50.068;14.452;2023-11-19T09:27:17;6.97;;;5.50;;
43114;SDS011;28727;50.068;14.452;2023-11-19T09:29:49;9.48;;;5.45;;
43114;SDS011;28727;50.068;14.452;2023-11-19T09:32:28;11.80;;;6.75;;
43114;SDS011;28727;50.068;14.452;2023-11-19T09:35:00;8.77;;;5.20;;
43114;SDS011;28727;50.068;14.452;2023-11-19T09:37:32;9.77;;;4.95;;
43114;SDS011;28727;50.068;14.452;2023-11-19T09:40:04;7.22;;;5.07;;
43114;SDS011;28727;50.068;14.452;2023-11-19T09:42:42;7.88;;;5.35;;
43114;SDS011;28727;50.068;14.452;2023-11-19T09:45:19;6.65;;;5.00;;
43114;SDS011;28727;50.068;14.452;2023-11-19T09:47:52;5.93;;;5.03;;
43114;SDS011;28727;50.068;14.452;2023-11-19T09:50:26;6.90;;;5.15;;
43114;SDS011;28727;50.068;14.452;2023-11-19T09:52:58;8.07;;;6.65;;
43114;SDS011;28727;50.068;14.452;2023-11-19T09:55:30;7.05;;;5.35;;
43114;SDS011;28727;50.068;14.452;2023-11-19T09:58:03;7.80;;;5.50;;
43114;SDS011;28727;50.068;14.452;2023-11-19T10:00:34;8.43;;;5.95;;
43114;SDS011;28727;50.068;14.452;2023-11-19T10:03:09;6.18;;;4.50;;
43114;SDS011;28727;50.068;14.452;2023-11-19T10:05:43;5.40;;;4.38;;
43114;SDS011;28727;50.068;14.452;2023-11-19T10:08:16;7.20;;;4.80;;
43114;SDS011;28727;50.068;14.452;2023-11-19T10:10:49;6.75;;;4.35;;
43114;SDS011;28727;50.068;14.452;2023-11-19T10:13:25;7.15;;;4.75;;
43114;SDS011;28727;50.068;14.452;2023-11-19T10:16:11;5.68;;;4.22;;
43114;SDS011;28727;50.068;14.452;2023-11-19T10:18:45;6.57;;;3.75;;
43114;SDS011;28727;50.068;14.452;2023-11-19T10:21:18;4.47;;;3.28;;
43114;SDS011;28727;50.068;14.452;2023-11-19T10:23:51;4.88;;;3.28;;
43114;SDS011;28727;50.068;14.452;2023-11-19T10:26:24;3.63;;;2.40;;
43114;SDS011;28727;50.068;14.452;2023-11-19T10:28:56;4.05;;;2.30;;
43114;SDS011;28727;50.068;14.452;2023-11-19T10:31:27;5.75;;;2.70;;
43114;SDS011;28727;50.068;14.452;2023-11-19T10:34:00;8.13;;;2.47;;
43114;SDS011;28727;50.068;14.452;2023-11-19T10:36:38;4.13;;;2.60;;
43114;SDS011;28727;50.068;14.452;2023-11-19T10:39:13;4.03;;;2.70;;
43114;SDS011;28727;50.068;14.452;2023-11-19T10:41:45;4.45;;;2.55;;
43114;SDS011;28727;50.068;14.452;2023-11-19T10:44:30;3.17;;;2.50;;
43114;SDS011;28727;50.068;14.452;2023-11-19T10:47:08;3.53;;;2.33;;
43114;SDS011;28727;50.068;14.452;2023-11-19T10:49:40;3.72;;;2.30;;
43114;SDS011;28727;50.068;14.452;2023-11-19T10:52:13;2.85;;;1.98;;
43114;SDS011;28727;50.068;14.452;2023-11-19T10:54:50;4.00;;;2.17;;
43114;SDS011;28727;50.068;14.452;2023-11-19T10:57:23;3.53;;;2.00;;
43114;SDS011;28727;50.068;14.452;2023-11-19T11:00:02;3.00;;;2.25;;
43114;SDS011;28727;50.068;14.452;2023-11-19T11:02:41;3.20;;;2.20;;
43114;SDS011;28727;50.068;14.452;2023-11-19T11:05:19;7.00;;;2.80;;
43114;SDS011;28727;50.068;14.452;2023-11-19T11:07:55;4.25;;;2.63;;
43114;SDS011;28727;50.068;14.452;2023-11-19T11:10:28;3.90;;;1.88;;
43114;SDS011;28727;50.068;14.452;2023-11-19T11:13:05;2.60;;;1.50;;
43114;SDS011;28727;50.068;14.452;2023-11-19T11:15:39;2.72;;;1.20;;
43114;SDS011;28727;50.068;14.452;2023-11-19T11:20:46;2.70;;;1.20;;
43114;SDS011;28727;50.068;14.452;2023-11-19T11:39:48;2.63;;;1.02;;
43114;SDS011;28727;50.068;14.452;2023-11-19T11:50:18;2.50;;;1.20;;
43114;SDS011;28727;50.068;14.452;2023-11-19T11:58:28;2.15;;;0.98;;
43114;SDS011;28727;50.068;14.452;2023-11-19T12:01:05;3.13;;;1.25;;
43114;SDS011;28727;50.068;14.452;2023-11-19T12:03:37;2.33;;;1.40;;
43114;SDS011;28727;50.068;14.452;2023-11-19T12:06:10;2.38;;;0.90;;
43114;SDS011;28727;50.068;14.452;2023-11-19T12:08:42;2.85;;;1.30;;
43114;SDS011;28727;50.068;14.452;2023-11-19T12:11:18;3.13;;;1.05;;
43114;SDS011;28727;50.068;14.452;2023-11-19T12:14:01;2.08;;;1.30;;
43114;SDS011;28727;50.068;14.452;2023-11-19T12:16:34;2.20;;;1.20;;
43114;SDS011;28727;50.068;14.452;2023-11-19T12:19:09;2.75;;;1.30;;
43114;SDS011;28727;50.068;14.452;2023-11-19T12:21:41;3.92;;;1.67;;
43114;SDS011;28727;50.068;14.452;2023-11-19T12:24:13;7.40;;;5.15;;
43114;SDS011;28727;50.068;14.452;2023-11-19T12:26:45;3.22;;;1.45;;
43114;SDS011;28727;50.068;14.452;2023-11-19T12:29:21;1.88;;;1.10;;
43114;SDS011;28727;50.068;14.452;2023-11-19T12:31:54;3.28;;;1.70;;
43114;SDS011;28727;50.068;14.452;2023-11-19T12:34:45;3.85;;;1.90;;
43114;SDS011;28727;50.068;14.452;2023-11-19T12:37:17;9.35;;;4.75;;
43114;SDS011;28727;50.068;14.452;2023-11-19T12:39:49;2.25;;;1.10;;
43114;SDS011;28727;50.068;14.452;2023-11-19T12:42:21;5.47;;;2.33;;
43114;SDS011;28727;50.068;14.452;2023-11-19T12:44:54;3.28;;;1.60;;
43114;SDS011;28727;50.068;14.452;2023-11-19T12:49:59;3.95;;;1.50;;
43114;SDS011;28727;50.068;14.452;2023-11-19T12:52:31;3.15;;;1.40;;
43114;SDS011;28727;50.068;14.452;2023-11-19T12:55:03;7.15;;;5.05;;
43114;SDS011;28727;50.068;14.452;2023-11-19T12:57:38;4.88;;;1.52;;
43114;SDS011;28727;50.068;14.452;2023-11-19T13:00:20;4.07;;;1.40;;
43114;SDS011;28727;50.068;14.452;2023-11-19T13:02:57;7.18;;;3.67;;
43114;SDS011;28727;50.068;14.452;2023-11-19T13:05:30;4.32;;;1.63;;
43114;SDS011;28727;50.068;14.452;2023-11-19T13:08:06;3.67;;;2.10;;
43114;SDS011;28727;50.068;14.452;2023-11-19T13:10:50;4.28;;;2.00;;
43114;SDS011;28727;50.068;14.452;2023-11-19T13:13:23;2.17;;;1.27;;
43114;SDS011;28727;50.068;14.452;2023-11-19T13:16:03;5.53;;;3.13;;
43114;SDS011;28727;50.068;14.452;2023-11-19T13:18:37;3.97;;;1.50;;
43114;SDS011;28727;50.068;14.452;2023-11-19T13:23:44;3.33;;;2.10;;
43114;SDS011;28727;50.068;14.452;2023-11-19T13:26:17;6.38;;;2.42;;
43114;SDS011;28727;50.068;14.452;2023-11-19T13:28:49;4.45;;;1.70;;
43114;SDS011;28727;50.068;14.452;2023-11-19T13:31:21;4.72;;;1.73;;
43114;SDS011;28727;50.068;14.452;2023-11-19T13:33:53;6.53;;;3.75;;
43114;SDS011;28727;50.068;14.452;2023-11-19T13:36:26;4.78;;;2.10;;
43114;SDS011;28727;50.068;14.452;2023-11-19T13:38:57;5.65;;;1.60;;
43114;SDS011;28727;50.068;14.452;2023-11-19T13:41:30;3.72;;;1.95;;
43114;SDS011;28727;50.068;14.452;2023-11-19T13:44:02;4.00;;;1.73;;
43114;SDS011;28727;50.068;14.452;2023-11-19T13:46:34;3.55;;;1.52;;
43114;SDS011;28727;50.068;14.452;2023-11-19T13:49:06;4.10;;;1.60;;
43114;SDS011;28727;50.068;14.452;2023-11-19T13:51:38;11.77;;;4.30;;
43114;SDS011;28727;50.068;14.452;2023-11-19T13:54:10;5.53;;;2.63;;
43114;SDS011;28727;50.068;14.452;2023-11-19T13:56:45;4.18;;;2.47;;
43114;SDS011;28727;50.068;14.452;2023-11-19T13:59:19;2.45;;;1.60;;
43114;SDS011;28727;50.068;14.452;2023-11-19T14:01:50;3.05;;;1.63;;
43114;SDS011;28727;50.068;14.452;2023-11-19T14:04:22;3.10;;;1.60;;
43114;SDS011;28727;50.068;14.452;2023-11-19T14:06:57;3.80;;;1.70;;
43114;SDS011;28727;50.068;14.452;2023-11-19T14:09:31;2.78;;;1.40;;
43114;SDS011;28727;50.068;14.452;2023-11-19T14:12:04;2.78;;;1.63;;
43114;SDS011;28727;50.068;14.452;2023-11-19T14:14:44;3.55;;;1.45;;
43114;SDS011;28727;50.068;14.452;2023-11-19T14:17:23;2.72;;;1.25;;
43114;SDS011;28727;50.068;14.452;2023-11-19T14:19:56;3.78;;;1.30;;
43114;SDS011;28727;50.068;14.452;2023-11-19T14:22:28;2.22;;;1.40;;
43114;SDS011;28727;50.068;14.452;2023-11-19T14:25:09;4.90;;;1.60;;
43114;SDS011;28727;50.068;14.452;2023-11-19T14:27:43;2.60;;;1.40;;
43114;SDS011;28727;50.068;14.452;2023-11-19T14:30:15;2.63;;;1.50;;
43114;SDS011;28727;50.068;14.452;2023-11-19T14:32:48;3.17;;;1.58;;
43114;SDS011;28727;50.068;14.452;2023-11-19T14:35:21;5.85;;;2.45;;
43114;SDS011;28727;50.068;14.452;2023-11-19T14:37:53;3.63;;;1.80;;
43114;SDS011;28727;50.068;14.452;2023-11-19T14:40:34;2.85;;;1.63;;
43114;SDS011;28727;50.068;14.452;2023-11-19T14:43:10;3.72;;;2.00;;
43114;SDS011;28727;50.068;14.452;2023-11-19T14:45:42;3.63;;;1.50;;
43114;SDS011;28727;50.068;14.452;2023-11-19T14:48:20;3.72;;;1.90;;
43114;SDS011;28727;50.068;14.452;2023-11-19T14:50:52;3.22;;;1.70;;
43114;SDS011;28727;50.068;14.452;2023-11-19T14:53:27;3.78;;;1.70;;
43114;SDS011;28727;50.068;14.452;2023-11-19T14:55:59;2.97;;;1.80;;
43114;SDS011;28727;50.068;14.452;2023-11-19T14:58:34;2.97;;;1.90;;
43114;SDS011;28727;50.068;14.452;2023-11-19T15:01:06;5.50;;;2.10;;
43114;SDS011;28727;50.068;14.452;2023-11-19T15:03:43;4.15;;;1.88;;
43114;SDS011;28727;50.068;14.452;2023-11-19T15:06:22;4.72;;;1.75;;
43114;SDS011;28727;50.068;14.452;2023-11-19T15:08:57;4.07;;;2.03;;
43114;SDS011;28727;50.068;14.452;2023-11-19T15:11:28;4.18;;;1.80;;
43114;SDS011;28727;50.068;14.452;2023-11-19T15:14:01;3.72;;;2.10;;
43114;SDS011;28727;50.068;14.452;2023-11-19T15:16:36;4.57;;;2.00;;
43114;SDS011;28727;50.068;14.452;2023-11-19T15:19:09;3.95;;;2.10;;
43114;SDS011;28727;50.068;14.452;2023-11-19T15:21:41;4.82;;;2.05;;
43114;SDS011;28727;50.068;14.452;2023-11-19T15:24:13;6.53;;;2.28;;
43114;SDS011;28727;50.068;14.452;2023-11-19T15:26:45;3.20;;;1.83;;
43114;SDS011;28727;50.068;14.452;2023-11-19T15:29:17;4.35;;;1.90;;
43114;SDS011;28727;50.068;14.452;2023-11-19T15:31:49;4.30;;;2.10;;
43114;SDS011;28727;50.068;14.452;2023-11-19T15:34:23;3.55;;;1.95;;
43114;SDS011;28727;50.068;14.452;2023-11-19T15:36:56;4.72;;;2.15;;
43114;SDS011;28727;50.068;14.452;2023-11-19T15:39:33;5.68;;;2.50;;
43114;SDS011;28727;50.068;14.452;2023-11-19T15:42:07;7.57;;;2.80;;
43114;SDS011;28727;50.068;14.452;2023-11-19T15:44:41;4.97;;;2.10;;
43114;SDS011;28727;50.068;14.452;2023-11-19T15:47:13;7.65;;;2.75;;
43114;SDS011;28727;50.068;14.452;2023-11-19T15:49:45;4.28;;;2.33;;
43114;SDS011;28727;50.068;14.452;2023-11-19T15:52:20;7.50;;;3.05;;
43114;SDS011;28727;50.068;14.452;2023-11-19T15:54:52;7.93;;;3.15;;
43114;SDS011;28727;50.068;14.452;2023-11-19T15:57:24;9.00;;;3.38;;
43114;SDS011;28727;50.068;14.452;2023-11-19T15:59:56;5.90;;;3.13;;